Half Moon Bay, CA

8:03 PM PDT on July 29, 2016 (GMT -0700)
HMB 5TH FAIRWAY | | Change Station

Elev 92 ft 37.43 °N, 122.43 °W | Updated 43 seconds ago

Overcast
Overcast
55.8 °F
Feels Like 55.8 °F
N
0.0
Wind Variable Wind from West
Gusts 0.0 mph

Today
High -- | Low -- °F
--% Chance of Precip.
Yesterday
High -- | Low -- °F
Precip. -- in
Pressure 29.85 in
Visibility 1.8 miles
Clouds Overcast 300 ft
Dew Point 53 °F
Humidity 90%
Rainfall 0.01 in
Snow Depth Not available.
6:12 AM 8:19 PM
Waning Crescent, 17% visible
METAR KHAF 300255Z AUTO 25003KT 1 3/4SM BR OVC003 13/13 A2985 RMK AO2
Pressure 29.85 in
Visibility 1.8 miles
Clouds Overcast 300 ft
Dew Point 53 °F
Humidity 90%
Rainfall 0.01 in
Snow Depth Not available.
6:12 AM 8:19 PM
Waning Crescent, 17% visible
METAR KHAF 300255Z AUTO 25003KT 1 3/4SM BR OVC003 13/13 A2985 RMK AO2

10-Day Weather Forecast

Almanac

Astronomy

Jul. 29, 2016 Rise Set
Actual Time
Civil Twilight
Nautical Twilight
Astronomical Twilight
Moon
Length of Visible Light
Length of Day
Tomorrow will be .
, % of the Moon is Illuminated

Today's Extremes

State Highs State Lows

Community

WunderPhotos

Upload Photos

1,928,492 photos uploaded!

WunderBlog® & News

Nearby

Air Quality

  Air Quality AQ Index Pollutant
Not available.

Snow Depth

Station Depth Elevation

Earthquake Activity

City Distance Mag. Time & Date
Minimum magnitude displayed is 2.5.

Coastal Water Temperatures

Place Temperature

Stations

Nearby Weather Stations

Station Location Temp. Windchill Dew Point Humidity Wind Precip. Elev Updated Type
                   

Watches & Warnings

There are currently no watches in effect.